Time;durP1;ratioP1;P1;durP2;ratioP2;P2;SDS_P1;SDS_P2;PMS_P1;PMS_P2;Temp;Humidity;BMP_temperature;BMP_pressure;BME280_temperature;BME280_humidity;BME280_pressure;Samples;Min_cycle;Max_cycle;Signal;HPM_P1;HPM_P2
2022/08/02 00:01:35;;;;;;;;;;;;;;;;;;5044704;28;19925;-61
2022/08/02 00:04:01;;;;;;;;;;;;;;;;;;5042876;28;20071;-61
2022/08/02 00:06:27;;;;;;;;;;;;;;;;;;5030769;28;19932;-61
2022/08/02 00:08:53;;;;;;;;;;;;;;;;;;5004321;28;19925;-60
2022/08/02 00:11:19;;;;;;;;;;;;;;;;;;5005593;28;19925;-61
2022/08/02 00:13:45;;;;;;;;;;;;;;;;;;5018123;28;20007;-61
2022/08/02 00:16:11;;;;;;;;;;;;;;;;;;5024102;28;19983;-61
2022/08/02 00:18:37;;;;;;;;;;;;;;;;;;5011592;28;20016;-61
2022/08/02 00:21:03;;;;;;;;;;;;;;;;;;5023449;28;20015;-61
2022/08/02 00:23:29;;;;;;;;;;;;;;;;;;5022095;28;20402;-61
2022/08/02 00:25:55;;;;;;;;;;;;;;;;;;5024150;28;20000;-61
2022/08/02 00:28:21;;;;;;;;;;;;;;;;;;5023367;28;19987;-61
2022/08/02 00:30:47;;;;;;;;;;;;;;;;;;5023850;28;20354;-61
2022/08/02 00:33:13;;;;;;;;;;;;;;;;;;5022347;28;19951;-61
2022/08/02 00:35:39;;;;;;;;;;;;;;;;;;5024035;28;19925;-61
2022/08/02 00:38:05;;;;;;;;;;;;;;;;;;5023204;28;20378;-61
2022/08/02 00:40:31;;;;;;;;;;;;;;;;;;5004767;28;20029;-61
2022/08/02 00:42:57;;;;;;;;;;;;;;;;;;5022828;28;19931;-61
2022/08/02 00:45:23;;;;;;;;;;;;;;;;;;5014098;28;19925;-61
2022/08/02 00:47:49;;;;;;;;;;;;;;;;;;5003183;28;20441;-61
2022/08/02 00:50:15;;;;;;;;;;;;;;;;;;5008448;28;19980;-61
2022/08/02 00:52:41;;;;;;;;;;;;;;;;;;5004685;28;19933;-60
2022/08/02 00:55:07;;;;;;;;;;;;;;;;;;5009823;28;19995;-61
2022/08/02 00:57:33;;;;;;;;;;;;;;;;;;5023578;28;19929;-61
2022/08/02 00:59:59;;;;;;;;;;;;;;;;;;5005791;28;19936;-60
2022/08/02 01:02:25;;;;;;;;;;;;;;;;;;5017173;28;20391;-60
2022/08/02 01:04:51;;;;;;;;;;;;;;;;;;5021599;28;19929;-60
2022/08/02 01:07:19;;;;;;;;;;;;;;;;;;5010410;28;21200;-61
2022/08/02 01:09:45;;;;;;;;;;;;;;;;;;5024366;28;20004;-61
2022/08/02 01:12:11;;;;;;;;;;;;;;;;;;5055638;22;20613;-56
2022/08/02 01:14:37;;;;;;;;;;;;;;;;;;5035648;28;19990;-56
2022/08/02 01:17:03;;;;;;;;;;;;;;;;;;5046391;28;19925;-56
2022/08/02 01:19:29;;;;;;;;;;;;;;;;;;5029623;28;20361;-56
2022/08/02 01:21:55;;;;;;;;;;;;;;;;;;5028356;28;20571;-56
2022/08/02 01:24:21;;;;;;;;;;;;;;;;;;5028611;28;19932;-56
2022/08/02 01:26:47;;;;;;;;;;;;;;;;;;5028702;28;20004;-56
2022/08/02 01:29:13;;;;;;;;;;;;;;;;;;5010315;28;20016;-56
2022/08/02 01:31:39;;;;;;;;;;;;;;;;;;5028476;28;19940;-56
2022/08/02 01:34:05;;;;;;;;;;;;;;;;;;5038200;28;19933;-56
2022/08/02 01:36:31;;;;;;;;;;;;;;;;;;5045060;28;20007;-56
2022/08/02 01:38:57;;;;;;;;;;;;;;;;;;5028377;28;20436;-56
2022/08/02 01:41:23;;;;;;;;;;;;;;;;;;5028031;28;19929;-56
2022/08/02 01:43:49;;;;;;;;;;;;;;;;;;5028584;28;19936;-56
2022/08/02 01:46:15;;;;;;;;;;;;;;;;;;5028097;28;19939;-56
2022/08/02 01:48:41;;;;;;;;;;;;;;;;;;5027085;28;20000;-56
2022/08/02 01:51:07;;;;;;;;;;;;;;;;;;5028751;28;20382;-56
2022/08/02 01:53:33;;;;;;;;;;;;;;;;;;5041476;28;19936;-56
2022/08/02 01:55:59;;;;;;;;;;;;;;;;;;5045114;28;19936;-56
2022/08/02 01:58:25;;;;;;;;;;;;;;;;;;5046779;28;19925;-56
2022/08/02 02:00:51;;;;;;;;;;;;;;;;;;5042524;28;20542;-57
2022/08/02 02:03:17;;;;;;;;;;;;;;;;;;5045648;28;19928;-56
2022/08/02 02:05:43;;;;;;;;;;;;;;;;;;5045139;28;19925;-56
2022/08/02 02:08:09;;;;;;;;;;;;;;;;;;5045945;28;20520;-57
2022/08/02 02:10:37;;;;;;;;;;;;;;;;;;5046574;28;20015;-56
2022/08/02 02:13:03;;;;;;;;;;;;;;;;;;5028919;28;20343;-56
2022/08/02 02:15:29;;;;;;;;;;;;;;;;;;5027428;28;20421;-56
2022/08/02 02:17:55;;;;;;;;;;;;;;;;;;5012161;28;19933;-56
2022/08/02 02:20:21;;;;;;;;;;;;;;;;;;5046010;28;19947;-56
2022/08/02 02:22:47;;;;;;;;;;;;;;;;;;5046022;28;20386;-56
2022/08/02 02:25:14;;;;;;;;;;;;;;;;;;5045709;28;19925;-56
2022/08/02 02:27:40;;;;;;;;;;;;;;;;;;5045016;28;20015;-57
2022/08/02 02:30:06;;;;;;;;;;;;;;;;;;5044723;28;20008;-56
2022/08/02 02:32:32;;;;;;;;;;;;;;;;;;5027423;28;19936;-56
2022/08/02 02:34:57;;;;;;;;;;;;;;;;;;5034430;28;20305;-56
2022/08/02 02:37:23;;;;;;;;;;;;;;;;;;5045892;28;19924;-56
2022/08/02 02:39:50;;;;;;;;;;;;;;;;;;5045462;28;19925;-56
2022/08/02 02:42:16;;;;;;;;;;;;;;;;;;5046061;28;19925;-57
2022/08/02 02:44:42;;;;;;;;;;;;;;;;;;5044065;28;21864;-56
2022/08/02 02:47:08;;;;;;;;;;;;;;;;;;5046257;28;19924;-56
2022/08/02 02:49:34;;;;;;;;;;;;;;;;;;5041381;28;19936;-56
2022/08/02 02:52:00;;;;;;;;;;;;;;;;;;5009489;28;19929;-56
2022/08/02 02:54:26;;;;;;;;;;;;;;;;;;5026787;28;19925;-56
2022/08/02 02:56:52;;;;;;;;;;;;;;;;;;5027026;28;20374;-56
2022/08/02 02:59:18;;;;;;;;;;;;;;;;;;5026872;28;19967;-56
2022/08/02 03:01:44;;;;;;;;;;;;;;;;;;5026896;28;19933;-56
2022/08/02 03:04:10;;;;;;;;;;;;;;;;;;5026627;28;19925;-56
2022/08/02 03:06:36;;;;;;;;;;;;;;;;;;5037505;28;19996;-56
2022/08/02 03:09:02;;;;;;;;;;;;;;;;;;5033618;28;19925;-56
2022/08/02 03:11:28;;;;;;;;;;;;;;;;;;5044889;28;20697;-56
2022/08/02 03:13:54;;;;;;;;;;;;;;;;;;5038975;28;20462;-56
2022/08/02 03:16:20;;;;;;;;;;;;;;;;;;5027845;28;19983;-56
2022/08/02 03:18:46;;;;;;;;;;;;;;;;;;5025768;28;20024;-56
2022/08/02 03:21:12;;;;;;;;;;;;;;;;;;5025888;28;20326;-56
2022/08/02 03:23:39;;;;;;;;;;;;;;;;;;5026454;28;20572;-56
2022/08/02 03:26:05;;;;;;;;;;;;;;;;;;5037863;28;19979;-56
2022/08/02 03:28:31;;;;;;;;;;;;;;;;;;5034846;28;19998;-56
2022/08/02 03:30:57;;;;;;;;;;;;;;;;;;5026364;28;20371;-55
2022/08/02 03:33:23;;;;;;;;;;;;;;;;;;5032324;28;19932;-56
2022/08/02 03:35:49;;;;;;;;;;;;;;;;;;5026534;28;20004;-56
2022/08/02 03:38:15;;;;;;;;;;;;;;;;;;5025964;28;19925;-56
2022/08/02 03:40:41;;;;;;;;;;;;;;;;;;5023815;28;19924;-56
2022/08/02 03:43:07;;;;;;;;;;;;;;;;;;5044677;28;20297;-56
2022/08/02 03:45:33;;;;;;;;;;;;;;;;;;5026883;28;19925;-56
2022/08/02 03:47:59;;;;;;;;;;;;;;;;;;5037199;28;19928;-56
2022/08/02 03:50:25;;;;;;;;;;;;;;;;;;5044292;28;19925;-56
2022/08/02 03:52:51;;;;;;;;;;;;;;;;;;5044426;28;19971;-56
2022/08/02 03:55:17;;;;;;;;;;;;;;;;;;5044069;28;19924;-56
2022/08/02 03:57:43;;;;;;;;;;;;;;;;;;5036843;28;20371;-56
2022/08/02 04:00:09;;;;;;;;;;;;;;;;;;5043666;28;19931;-57
2022/08/02 04:02:35;;;;;;;;;;;;;;;;;;5043724;28;19932;-56
2022/08/02 04:05:01;;;;;;;;;;;;;;;;;;5044094;28;19944;-56
2022/08/02 04:07:27;;;;;;;;;;;;;;;;;;5028893;28;20378;-56
2022/08/02 04:09:53;;;;;;;;;;;;;;;;;;5025482;28;19979;-56
2022/08/02 04:12:19;;;;;;;;;;;;;;;;;;5034898;28;19980;-56
2022/08/02 04:14:45;;;;;;;;;;;;;;;;;;5028220;28;19925;-56
2022/08/02 04:17:11;;;;;;;;;;;;;;;;;;5039685;28;19932;-57
2022/08/02 04:19:37;;;;;;;;;;;;;;;;;;5043592;28;20286;-56
2022/08/02 04:22:03;;;;;;;;;;;;;;;;;;5044214;28;19924;-56
2022/08/02 04:24:30;;;;;;;;;;;;;;;;;;5044034;28;19929;-57
2022/08/02 04:26:56;;;;;;;;;;;;;;;;;;5025775;28;20011;-56
2022/08/02 04:29:22;;;;;;;;;;;;;;;;;;5024978;28;19925;-56
2022/08/02 04:31:48;;;;;;;;;;;;;;;;;;5036561;28;19966;-56
2022/08/02 04:34:14;;;;;;;;;;;;;;;;;;5042632;28;20572;-56
2022/08/02 04:36:40;;;;;;;;;;;;;;;;;;5043404;28;19925;-57
2022/08/02 04:39:06;;;;;;;;;;;;;;;;;;5043396;28;19925;-55
2022/08/02 04:41:32;;;;;;;;;;;;;;;;;;5043911;28;19929;-56
2022/08/02 04:43:58;;;;;;;;;;;;;;;;;;5041534;28;19928;-56
2022/08/02 04:46:24;;;;;;;;;;;;;;;;;;5024555;28;20294;-56
2022/08/02 04:48:50;;;;;;;;;;;;;;;;;;5024179;28;19932;-56
2022/08/02 04:51:16;;;;;;;;;;;;;;;;;;5006645;28;20011;-56
2022/08/02 04:53:42;;;;;;;;;;;;;;;;;;5024985;28;20283;-57
2022/08/02 04:56:09;;;;;;;;;;;;;;;;;;5024858;28;19979;-56
2022/08/02 04:58:35;;;;;;;;;;;;;;;;;;5026079;28;19928;-56
2022/08/02 05:01:01;;;;;;;;;;;;;;;;;;5025932;28;20358;-56
2022/08/02 05:03:27;;;;;;;;;;;;;;;;;;5027625;28;19948;-56
2022/08/02 05:05:53;;;;;;;;;;;;;;;;;;5036341;28;19925;-56
2022/08/02 05:08:19;;;;;;;;;;;;;;;;;;5025725;28;19933;-56
2022/08/02 05:10:45;;;;;;;;;;;;;;;;;;5025033;28;19925;-56
2022/08/02 05:13:11;;;;;;;;;;;;;;;;;;5024124;28;20297;-57
2022/08/02 05:15:37;;;;;;;;;;;;;;;;;;5024667;28;19925;-56
2022/08/02 05:18:03;;;;;;;;;;;;;;;;;;5023891;28;19925;-56
2022/08/02 05:20:29;;;;;;;;;;;;;;;;;;5032884;28;20489;-56
2022/08/02 05:22:55;;;;;;;;;;;;;;;;;;5001556;28;20015;-56
2022/08/02 05:25:22;;;;;;;;;;;;;;;;;;5043080;28;20287;-56
2022/08/02 05:27:48;;;;;;;;;;;;;;;;;;5043016;28;19987;-56
2022/08/02 05:30:14;;;;;;;;;;;;;;;;;;5042797;28;19932;-56
2022/08/02 05:32:40;;;;;;;;;;;;;;;;;;5040191;28;19924;-57
2022/08/02 05:35:06;;;;;;;;;;;;;;;;;;5042813;28;19925;-57
2022/08/02 05:37:32;;;;;;;;;;;;;;;;;;5042973;28;19925;-57
2022/08/02 05:39:58;;;;;;;;;;;;;;;;;;5027874;28;19929;-57
2022/08/02 05:42:24;;;;;;;;;;;;;;;;;;5034507;28;19933;-57
2022/08/02 05:44:50;;;;;;;;;;;;;;;;;;5042742;28;19928;-57
2022/08/02 05:47:16;;;;;;;;;;;;;;;;;;5042083;28;19944;-57
2022/08/02 05:49:42;;;;;;;;;;;;;;;;;;5040390;28;21822;-57
2022/08/02 05:52:08;;;;;;;;;;;;;;;;;;5030735;28;19947;-57
2022/08/02 05:54:34;;;;;;;;;;;;;;;;;;5036317;28;19928;-57
2022/08/02 05:57:00;;;;;;;;;;;;;;;;;;5036591;28;19924;-57
2022/08/02 05:59:27;;;;;;;;;;;;;;;;;;5035149;28;19925;-57
2022/08/02 06:01:53;;;;;;;;;;;;;;;;;;5035430;28;20404;-57
2022/08/02 06:04:19;;;;;;;;;;;;;;;;;;5037532;28;19995;-57
2022/08/02 06:06:45;;;;;;;;;;;;;;;;;;5021774;28;19931;-57
2022/08/02 06:09:11;;;;;;;;;;;;;;;;;;5039296;28;19917;-57
2022/08/02 06:11:37;;;;;;;;;;;;;;;;;;5038193;28;19939;-57
2022/08/02 06:14:03;;;;;;;;;;;;;;;;;;5034665;28;19925;-57
2022/08/02 06:16:29;;;;;;;;;;;;;;;;;;5032418;28;19936;-57
2022/08/02 06:18:55;;;;;;;;;;;;;;;;;;5033149;28;19925;-57
2022/08/02 06:21:21;;;;;;;;;;;;;;;;;;5032231;28;21186;-57
2022/08/02 06:23:47;;;;;;;;;;;;;;;;;;5032155;28;20511;-57
2022/08/02 06:26:13;;;;;;;;;;;;;;;;;;5033073;28;19925;-57
2022/08/02 06:28:39;;;;;;;;;;;;;;;;;;5032575;28;19931;-58
2022/08/02 06:31:06;;;;;;;;;;;;;;;;;;5033482;28;19929;-58
2022/08/02 06:33:32;;;;;;;;;;;;;;;;;;5026776;28;19933;-58
2022/08/02 06:35:58;;;;;;;;;;;;;;;;;;5027078;28;20426;-57
2022/08/02 06:38:24;;;;;;;;;;;;;;;;;;5026637;28;20016;-57
2022/08/02 06:40:50;;;;;;;;;;;;;;;;;;5028330;28;19933;-57
2022/08/02 06:43:16;;;;;;;;;;;;;;;;;;5026319;28;20390;-57
2022/08/02 06:45:42;;;;;;;;;;;;;;;;;;5026627;28;19929;-57
2022/08/02 06:48:08;;;;;;;;;;;;;;;;;;5008758;28;19932;-57
2022/08/02 06:50:34;;;;;;;;;;;;;;;;;;5026638;28;19925;-57
2022/08/02 06:53:00;;;;;;;;;;;;;;;;;;5027878;28;20497;-57
2022/08/02 06:55:28;;;;;;;;;;;;;;;;;;5025421;28;19925;-57
2022/08/02 06:57:54;;;;;;;;;;;;;;;;;;5040860;28;19928;-57
2022/08/02 07:00:20;;;;;;;;;;;;;;;;;;5028313;28;19925;-57
2022/08/02 07:02:46;;;;;;;;;;;;;;;;;;5028653;28;19932;-58
2022/08/02 07:05:12;;;;;;;;;;;;;;;;;;5031873;28;19925;-58
2022/08/02 07:07:38;;;;;;;;;;;;;;;;;;5031942;28;20438;-58
2022/08/02 07:10:04;;;;;;;;;;;;;;;;;;5031478;28;19928;-57
2022/08/02 07:12:30;;;;;;;;;;;;;;;;;;5033008;28;19925;-58
2022/08/02 07:14:57;;;;;;;;;;;;;;;;;;5032578;28;19933;-58
2022/08/02 07:17:23;;;;;;;;;;;;;;;;;;5033044;28;19925;-57
2022/08/02 07:19:49;;;;;;;;;;;;;;;;;;5032420;28;20023;-58
2022/08/02 07:22:17;;;;;;;;;;;;;;;;;;5030111;28;20402;-58
2022/08/02 07:24:43;;;;;;;;;;;;;;;;;;5030067;28;20524;-58
2022/08/02 07:27:09;;;;;;;;;;;;;;;;;;5031310;28;19948;-58
2022/08/02 07:29:35;;;;;;;;;;;;;;;;;;5032166;28;19952;-58
2022/08/02 07:32:01;;;;;;;;;;;;;;;;;;5030475;28;20022;-57
2022/08/02 07:34:27;;;;;;;;;;;;;;;;;;5029677;28;19979;-58
2022/08/02 07:36:53;;;;;;;;;;;;;;;;;;5026965;28;20299;-56
2022/08/02 07:39:20;;;;;;;;;;;;;;;;;;5030634;28;19925;-58
2022/08/02 07:41:46;;;;;;;;;;;;;;;;;;5025451;28;19928;-58
2022/08/02 07:44:12;;;;;;;;;;;;;;;;;;5027492;28;19925;-58
2022/08/02 07:46:38;;;;;;;;;;;;;;;;;;5029117;28;19947;-57
2022/08/02 07:49:04;;;;;;;;;;;;;;;;;;5029352;28;19936;-58
2022/08/02 07:51:32;;;;;;;;;;;;;;;;;;5025130;28;19932;-58
2022/08/02 07:53:58;;;;;;;;;;;;;;;;;;5025580;28;19925;-57
2022/08/02 07:56:24;;;;;;;;;;;;;;;;;;5025334;28;19929;-58
2022/08/02 07:58:50;;;;;;;;;;;;;;;;;;4992170;28;19932;-58
2022/08/02 08:01:16;;;;;;;;;;;;;;;;;;5026569;28;19925;-58
2022/08/02 08:03:42;;;;;;;;;;;;;;;;;;5025615;28;19928;-57
2022/08/02 08:06:08;;;;;;;;;;;;;;;;;;5026148;28;19975;-58
2022/08/02 08:08:34;;;;;;;;;;;;;;;;;;5025808;28;19960;-58
2022/08/02 08:11:00;;;;;;;;;;;;;;;;;;5025265;28;20000;-58
2022/08/02 08:13:26;;;;;;;;;;;;;;;;;;5024834;28;19929;-58
2022/08/02 08:15:52;;;;;;;;;;;;;;;;;;5033237;28;19932;-57
2022/08/02 08:18:18;;;;;;;;;;;;;;;;;;5025379;28;19943;-58
2022/08/02 08:20:44;;;;;;;;;;;;;;;;;;5007697;28;19937;-57
2022/08/02 08:23:10;;;;;;;;;;;;;;;;;;5028560;28;19929;-58
2022/08/02 08:25:36;;;;;;;;;;;;;;;;;;5007272;28;19925;-58
2022/08/02 08:28:02;;;;;;;;;;;;;;;;;;5025671;28;19931;-58
2022/08/02 08:30:28;;;;;;;;;;;;;;;;;;5032350;28;19936;-58
2022/08/02 08:32:54;;;;;;;;;;;;;;;;;;5041522;28;19932;-55
2022/08/02 08:35:20;;;;;;;;;;;;;;;;;;5026447;28;19925;-55
2022/08/02 08:37:46;;;;;;;;;;;;;;;;;;5026812;28;19974;-55
2022/08/02 08:40:13;;;;;;;;;;;;;;;;;;5033108;28;19939;-55
2022/08/02 08:42:39;;;;;;;;;;;;;;;;;;5041451;28;19921;-56
2022/08/02 08:45:05;;;;;;;;;;;;;;;;;;5043415;28;19925;-55
2022/08/02 08:47:31;;;;;;;;;;;;;;;;;;5026781;28;19992;-55
2022/08/02 08:49:57;;;;;;;;;;;;;;;;;;5027912;28;19921;-55
2022/08/02 08:52:23;;;;;;;;;;;;;;;;;;5041659;28;19995;-55
2022/08/02 08:54:49;;;;;;;;;;;;;;;;;;5031804;28;19936;-55
2022/08/02 08:57:15;;;;;;;;;;;;;;;;;;5042489;28;20388;-55
2022/08/02 08:59:41;;;;;;;;;;;;;;;;;;5017049;28;19933;-55
2022/08/02 09:02:07;;;;;;;;;;;;;;;;;;5033823;28;19924;-55
2022/08/02 09:04:33;;;;;;;;;;;;;;;;;;5034353;28;20302;-55
2022/08/02 09:06:59;;;;;;;;;;;;;;;;;;5033169;28;19940;-55
2022/08/02 09:09:25;;;;;;;;;;;;;;;;;;5040999;28;19925;-55
2022/08/02 09:11:51;;;;;;;;;;;;;;;;;;5044643;28;19956;-55
2022/08/02 09:14:17;;;;;;;;;;;;;;;;;;5034069;28;19925;-55
2022/08/02 09:16:43;;;;;;;;;;;;;;;;;;5015347;28;19933;-55
2022/08/02 09:19:09;;;;;;;;;;;;;;;;;;5034653;28;19962;-56
2022/08/02 09:21:35;;;;;;;;;;;;;;;;;;5033562;28;20023;-55
2022/08/02 09:24:01;;;;;;;;;;;;;;;;;;5028466;28;20320;-55
2022/08/02 09:26:27;;;;;;;;;;;;;;;;;;5031930;28;19952;-56
2022/08/02 09:28:53;;;;;;;;;;;;;;;;;;5033233;28;19978;-56
2022/08/02 09:31:19;;;;;;;;;;;;;;;;;;5034578;28;19925;-55
2022/08/02 09:33:45;;;;;;;;;;;;;;;;;;5038111;28;19993;-56
2022/08/02 09:36:11;;;;;;;;;;;;;;;;;;5037934;28;20435;-56
2022/08/02 09:38:37;;;;;;;;;;;;;;;;;;5038778;28;19921;-56
2022/08/02 09:41:03;;;;;;;;;;;;;;;;;;5035400;28;19936;-56
2022/08/02 09:43:30;;;;;;;;;;;;;;;;;;5036303;28;19925;-55
2022/08/02 09:45:56;;;;;;;;;;;;;;;;;;5033917;28;19960;-55
2022/08/02 09:48:22;;;;;;;;;;;;;;;;;;5034963;28;20463;-56
2022/08/02 09:50:48;;;;;;;;;;;;;;;;;;5038194;28;19968;-55
2022/08/02 09:53:14;;;;;;;;;;;;;;;;;;5036192;28;19972;-55
2022/08/02 09:55:40;;;;;;;;;;;;;;;;;;5037545;28;19944;-55
2022/08/02 09:58:06;;;;;;;;;;;;;;;;;;5037660;28;20008;-55
2022/08/02 10:00:32;;;;;;;;;;;;;;;;;;5035960;28;20433;-56
2022/08/02 10:02:58;;;;;;;;;;;;;;;;;;5047237;28;19925;-56
2022/08/02 10:05:24;;;;;;;;;;;;;;;;;;5047158;28;19924;-56
2022/08/02 10:07:50;;;;;;;;;;;;;;;;;;5047729;28;20370;-56
2022/08/02 10:10:16;;;;;;;;;;;;;;;;;;5047059;28;19968;-56
2022/08/02 10:12:42;;;;;;;;;;;;;;;;;;5047325;28;20365;-55
2022/08/02 10:15:08;;;;;;;;;;;;;;;;;;5047718;28;20012;-56
2022/08/02 10:17:34;;;;;;;;;;;;;;;;;;5047126;28;20019;-56
2022/08/02 10:20:00;;;;;;;;;;;;;;;;;;5047198;28;20011;-56
2022/08/02 10:22:26;;;;;;;;;;;;;;;;;;5047261;28;19925;-56
2022/08/02 10:24:52;;;;;;;;;;;;;;;;;;5047074;28;19925;-56
2022/08/02 10:27:19;;;;;;;;;;;;;;;;;;5047265;28;19936;-56
2022/08/02 10:29:45;;;;;;;;;;;;;;;;;;5047147;28;19928;-57
2022/08/02 10:32:12;;;;;;;;;;;;;;;;;;5046121;28;20015;-57
2022/08/02 10:34:39;;;;;;;;;;;;;;;;;;5047235;28;19981;-57
2022/08/02 10:37:05;;;;;;;;;;;;;;;;;;5035100;28;19929;-56
2022/08/02 10:39:31;;;;;;;;;;;;;;;;;;5026479;28;19922;-56
2022/08/02 10:41:57;;;;;;;;;;;;;;;;;;5036000;28;19925;-56
2022/08/02 10:44:23;;;;;;;;;;;;;;;;;;5043227;28;20370;-56
2022/08/02 10:46:49;;;;;;;;;;;;;;;;;;5043435;28;19971;-56
2022/08/02 10:49:15;;;;;;;;;;;;;;;;;;5035273;28;20417;-57
2022/08/02 10:51:41;;;;;;;;;;;;;;;;;;5027080;28;20431;-56
2022/08/02 10:54:07;;;;;;;;;;;;;;;;;;5031700;28;20381;-56
2022/08/02 10:56:33;;;;;;;;;;;;;;;;;;5037310;28;19976;-56
2022/08/02 10:58:59;;;;;;;;;;;;;;;;;;5036669;28;19925;-56
2022/08/02 11:01:25;;;;;;;;;;;;;;;;;;5037976;28;20032;-56
2022/08/02 11:03:51;;;;;;;;;;;;;;;;;;5035894;28;19921;-56
2022/08/02 11:06:17;;;;;;;;;;;;;;;;;;5037160;28;20623;-56
2022/08/02 11:08:43;;;;;;;;;;;;;;;;;;5038376;28;20011;-56
2022/08/02 11:11:09;;;;;;;;;;;;;;;;;;5036347;28;19921;-56
2022/08/02 11:13:35;;;;;;;;;;;;;;;;;;5026363;28;19952;-56
2022/08/02 11:16:01;;;;;;;;;;;;;;;;;;5033707;28;19932;-56
2022/08/02 11:18:27;;;;;;;;;;;;;;;;;;5026922;28;20382;-56
2022/08/02 11:20:53;;;;;;;;;;;;;;;;;;5027476;28;20398;-56
2022/08/02 11:23:19;;;;;;;;;;;;;;;;;;5036192;28;19995;-56
2022/08/02 11:25:45;;;;;;;;;;;;;;;;;;5040097;28;20054;-57
2022/08/02 11:28:11;;;;;;;;;;;;;;;;;;5034008;28;19979;-56
2022/08/02 11:30:37;;;;;;;;;;;;;;;;;;5032242;28;19925;-57
2022/08/02 11:33:03;;;;;;;;;;;;;;;;;;5027908;28;19925;-56
2022/08/02 11:35:29;;;;;;;;;;;;;;;;;;5028338;28;19929;-56
2022/08/02 11:37:57;;;;;;;;;;;;;;;;;;5041519;28;20151;-56
2022/08/02 11:40:23;;;;;;;;;;;;;;;;;;5028510;28;19925;-55
2022/08/02 11:42:49;;;;;;;;;;;;;;;;;;5043869;28;20007;-56
2022/08/02 11:45:15;;;;;;;;;;;;;;;;;;5045530;28;19924;-56
2022/08/02 11:47:41;;;;;;;;;;;;;;;;;;5039672;28;19929;-56
2022/08/02 11:50:07;;;;;;;;;;;;;;;;;;5035985;28;20458;-56
2022/08/02 11:52:33;;;;;;;;;;;;;;;;;;5030262;28;19925;-56
2022/08/02 11:54:59;;;;;;;;;;;;;;;;;;5037870;28;20323;-56
2022/08/02 11:57:25;;;;;;;;;;;;;;;;;;5045330;28;20378;-56
2022/08/02 11:59:51;;;;;;;;;;;;;;;;;;5044663;28;19925;-56
2022/08/02 12:02:17;;;;;;;;;;;;;;;;;;5032491;28;19925;-56
2022/08/02 12:04:43;;;;;;;;;;;;;;;;;;5031219;28;19931;-56
2022/08/02 12:07:09;;;;;;;;;;;;;;;;;;5024955;28;19925;-57
2022/08/02 12:09:36;;;;;;;;;;;;;;;;;;5030353;28;19936;-56
2022/08/02 12:12:02;;;;;;;;;;;;;;;;;;5033642;28;20438;-56
2022/08/02 12:14:28;;;;;;;;;;;;;;;;;;5036119;28;19932;-56
2022/08/02 12:19:38;;;;;;;;;;;;;;;;;;5045358;28;19968;-56
2022/08/02 12:22:04;;;;;;;;;;;;;;;;;;5045463;28;19955;-56
2022/08/02 12:24:30;;;;;;;;;;;;;;;;;;5044547;28;20437;-56
2022/08/02 12:26:56;;;;;;;;;;;;;;;;;;5042203;28;19982;-57
2022/08/02 12:29:22;;;;;;;;;;;;;;;;;;5041210;28;19920;-56
2022/08/02 12:31:48;;;;;;;;;;;;;;;;;;5043742;28;19925;-56
2022/08/02 12:34:16;;;;;;;;;;;;;;;;;;5033823;28;19931;-56
2022/08/02 12:36:42;;;;;;;;;;;;;;;;;;5027363;28;19972;-57
2022/08/02 12:39:08;;;;;;;;;;;;;;;;;;5025437;28;19972;-56
2022/08/02 12:41:35;;;;;;;;;;;;;;;;;;5025093;28;19987;-57
2022/08/02 12:44:01;;;;;;;;;;;;;;;;;;5024156;28;19925;-56
2022/08/02 12:46:27;;;;;;;;;;;;;;;;;;5023772;28;20063;-56
2022/08/02 12:48:53;;;;;;;;;;;;;;;;;;5025022;28;20145;-56
2022/08/02 12:51:20;;;;;;;;;;;;;;;;;;5024311;28;20370;-56
2022/08/02 12:53:46;;;;;;;;;;;;;;;;;;5026134;28;19926;-56
2022/08/02 12:56:12;;;;;;;;;;;;;;;;;;5044065;28;19932;-57
2022/08/02 12:58:38;;;;;;;;;;;;;;;;;;5044322;28;19929;-56
2022/08/02 13:01:04;;;;;;;;;;;;;;;;;;5043963;28;20374;-57
2022/08/02 13:03:30;;;;;;;;;;;;;;;;;;5041074;28;20437;-56
2022/08/02 13:05:56;;;;;;;;;;;;;;;;;;5044405;28;20011;-56
2022/08/02 13:08:22;;;;;;;;;;;;;;;;;;5044590;28;19925;-56
2022/08/02 13:10:48;;;;;;;;;;;;;;;;;;5044021;28;20270;-56
2022/08/02 13:13:14;;;;;;;;;;;;;;;;;;5046965;28;20016;-56
2022/08/02 13:15:40;;;;;;;;;;;;;;;;;;5047903;28;20033;-56
2022/08/02 13:18:06;;;;;;;;;;;;;;;;;;5048798;28;19921;-56
2022/08/02 13:20:32;;;;;;;;;;;;;;;;;;5047700;28;19928;-56
2022/08/02 13:22:58;;;;;;;;;;;;;;;;;;5048607;28;20027;-56
2022/08/02 13:25:25;;;;;;;;;;;;;;;;;;5047634;28;19925;-57
2022/08/02 13:27:51;;;;;;;;;;;;;;;;;;5048595;28;19925;-56
2022/08/02 13:30:17;;;;;;;;;;;;;;;;;;5047784;28;20275;-56
2022/08/02 13:32:43;;;;;;;;;;;;;;;;;;5046608;28;20163;-57
2022/08/02 13:35:09;;;;;;;;;;;;;;;;;;5047820;28;20319;-59
2022/08/02 13:37:35;;;;;;;;;;;;;;;;;;5048502;28;19929;-57
2022/08/02 13:40:01;;;;;;;;;;;;;;;;;;5047264;28;19924;-56
2022/08/02 13:42:27;;;;;;;;;;;;;;;;;;5048205;28;19925;-56
2022/08/02 13:44:53;;;;;;;;;;;;;;;;;;5048243;28;20322;-56
2022/08/02 13:47:19;;;;;;;;;;;;;;;;;;5046430;28;19931;-56
2022/08/02 13:49:45;;;;;;;;;;;;;;;;;;5047813;28;19931;-57
2022/08/02 13:52:11;;;;;;;;;;;;;;;;;;5042990;28;19924;-57
2022/08/02 13:54:37;;;;;;;;;;;;;;;;;;5047009;28;19929;-56
2022/08/02 13:57:03;;;;;;;;;;;;;;;;;;5047428;28;19986;-57
2022/08/02 13:59:29;;;;;;;;;;;;;;;;;;5047666;28;19929;-57
2022/08/02 14:01:57;;;;;;;;;;;;;;;;;;5038550;28;19925;-56
2022/08/02 14:04:23;;;;;;;;;;;;;;;;;;5027238;28;19926;-56
2022/08/02 14:06:49;;;;;;;;;;;;;;;;;;5040811;28;19925;-57
2022/08/02 14:09:15;;;;;;;;;;;;;;;;;;5046743;28;19932;-57
2022/08/02 14:11:41;;;;;;;;;;;;;;;;;;5047402;28;19924;-57
2022/08/02 14:14:07;;;;;;;;;;;;;;;;;;5030719;28;20287;-57
2022/08/02 14:16:33;;;;;;;;;;;;;;;;;;5026324;28;19971;-57
2022/08/02 14:18:59;;;;;;;;;;;;;;;;;;5027373;28;19975;-57
2022/08/02 14:21:25;;;;;;;;;;;;;;;;;;5026548;28;19925;-58
2022/08/02 14:23:51;;;;;;;;;;;;;;;;;;5025355;28;19932;-58
2022/08/02 14:26:17;;;;;;;;;;;;;;;;;;5026919;28;20333;-57
2022/08/02 14:28:43;;;;;;;;;;;;;;;;;;5027251;28;20425;-58
2022/08/02 14:31:09;;;;;;;;;;;;;;;;;;5027536;28;19921;-58
2022/08/02 14:33:35;;;;;;;;;;;;;;;;;;5046831;28;19929;-57
2022/08/02 14:36:01;;;;;;;;;;;;;;;;;;5046641;28;19987;-57
2022/08/02 14:38:27;;;;;;;;;;;;;;;;;;5046063;28;19929;-57
2022/08/02 14:40:53;;;;;;;;;;;;;;;;;;5046971;28;19925;-57
2022/08/02 14:46:04;;;;;;;;;;;;;;;;;;5046685;28;19931;-58
2022/08/02 14:48:30;;;;;;;;;;;;;;;;;;5045934;28;19925;-57
2022/08/02 14:50:56;;;;;;;;;;;;;;;;;;5046318;28;19925;-57
2022/08/02 14:53:22;;;;;;;;;;;;;;;;;;5046483;28;20550;-57
2022/08/02 14:55:49;;;;;;;;;;;;;;;;;;5035441;28;19925;-55
2022/08/02 14:58:15;;;;;;;;;;;;;;;;;;5026698;28;19933;-57
2022/08/02 15:00:41;;;;;;;;;;;;;;;;;;5025544;28;19929;-56
2022/08/02 15:03:07;;;;;;;;;;;;;;;;;;5026232;28;20497;-57
2022/08/02 15:05:33;;;;;;;;;;;;;;;;;;5034947;28;19940;-57
2022/08/02 15:07:59;;;;;;;;;;;;;;;;;;5046133;28;20691;-56
2022/08/02 15:10:25;;;;;;;;;;;;;;;;;;5046070;28;19924;-57
2022/08/02 15:12:51;;;;;;;;;;;;;;;;;;5045858;28;20318;-57
2022/08/02 15:15:17;;;;;;;;;;;;;;;;;;5045197;28;19925;-56
2022/08/02 15:17:43;;;;;;;;;;;;;;;;;;5045818;28;19925;-56
2022/08/02 15:20:09;;;;;;;;;;;;;;;;;;5045841;28;19925;-58
2022/08/02 15:22:35;;;;;;;;;;;;;;;;;;5046248;28;19925;-56
2022/08/02 15:25:01;;;;;;;;;;;;;;;;;;5045461;28;19932;-56
2022/08/02 15:27:27;;;;;;;;;;;;;;;;;;5045587;28;19932;-56
2022/08/02 15:29:58;;;;;;;;;;;;;;;;;;5045731;28;19931;-56
2022/08/02 15:32:24;;;;;;;;;;;;;;;;;;5044628;28;20030;-56
2022/08/02 15:34:50;;;;;;;;;;;;;;;;;;5045588;28;20007;-57
2022/08/02 15:37:16;;;;;;;;;;;;;;;;;;5045578;28;19925;-56
2022/08/02 15:39:42;;;;;;;;;;;;;;;;;;5045897;28;19931;-56
2022/08/02 15:42:08;;;;;;;;;;;;;;;;;;5046288;28;20427;-56
2022/08/02 15:44:34;;;;;;;;;;;;;;;;;;5044987;28;20019;-57
2022/08/02 15:47:00;;;;;;;;;;;;;;;;;;5044693;28;20602;-57
2022/08/02 15:49:26;;;;;;;;;;;;;;;;;;5045413;28;19920;-57
2022/08/02 15:51:52;;;;;;;;;;;;;;;;;;5045027;28;19932;-57
2022/08/02 15:54:18;;;;;;;;;;;;;;;;;;5045003;28;19924;-58
2022/08/02 15:56:44;;;;;;;;;;;;;;;;;;5045164;28;19937;-58
2022/08/02 15:59:11;;;;;;;;;;;;;;;;;;5044721;28;19925;-59
2022/08/02 16:01:37;;;;;;;;;;;;;;;;;;5038815;28;19928;-58
2022/08/02 16:04:03;;;;;;;;;;;;;;;;;;5034062;28;20018;-58
2022/08/02 16:06:29;;;;;;;;;;;;;;;;;;5035755;28;20068;-58
2022/08/02 16:08:55;;;;;;;;;;;;;;;;;;5034290;28;20622;-58
2022/08/02 16:11:21;;;;;;;;;;;;;;;;;;5032106;28;19936;-57
2022/08/02 16:13:49;;;;;;;;;;;;;;;;;;5030409;28;19933;-59
2022/08/02 16:16:15;;;;;;;;;;;;;;;;;;5038683;28;19940;-59
2022/08/02 16:18:41;;;;;;;;;;;;;;;;;;5042331;28;19936;-59
2022/08/02 16:21:07;;;;;;;;;;;;;;;;;;5042283;28;19986;-59
2022/08/02 16:23:33;;;;;;;;;;;;;;;;;;5042407;28;19933;-58
2022/08/02 16:25:59;;;;;;;;;;;;;;;;;;5042458;28;20034;-58
2022/08/02 16:28:26;;;;;;;;;;;;;;;;;;5042080;28;20109;-58
2022/08/02 16:30:52;;;;;;;;;;;;;;;;;;5033220;28;19925;-59
2022/08/02 16:33:18;;;;;;;;;;;;;;;;;;5032592;28;19955;-58
2022/08/02 16:35:44;;;;;;;;;;;;;;;;;;5035057;28;19924;-58
2022/08/02 16:38:10;;;;;;;;;;;;;;;;;;5042118;28;20043;-59
2022/08/02 16:40:36;;;;;;;;;;;;;;;;;;5032864;28;19982;-58
2022/08/02 16:43:02;;;;;;;;;;;;;;;;;;5031895;28;20017;-58